createdAt,value
2022-12-02T00:01:06.780Z,90.00
2022-12-02T00:03:37.816Z,90.10
2022-12-02T00:06:06.715Z,90.10
2022-12-02T00:08:37.210Z,90.00
2022-12-02T00:11:20.102Z,90.10
2022-12-02T00:13:48.436Z,90.00
2022-12-02T00:16:22.768Z,89.70
2022-12-02T00:18:51.696Z,89.60
2022-12-02T00:21:20.798Z,89.40
2022-12-02T00:23:49.628Z,89.70
2022-12-02T00:26:18.266Z,89.30
2022-12-02T00:28:46.527Z,88.90
2022-12-02T00:31:14.915Z,88.40
2022-12-02T00:33:44.583Z,88.60
2022-12-02T00:36:12.861Z,89.00
2022-12-02T00:38:41.240Z,89.30
2022-12-02T00:41:09.525Z,89.40
2022-12-02T00:43:55.199Z,88.80
2022-12-02T00:46:35.428Z,89.00
2022-12-02T00:49:08.024Z,89.10
2022-12-02T00:51:37.557Z,89.10
2022-12-02T00:54:06.126Z,88.70
2022-12-02T00:56:34.733Z,88.70
2022-12-02T00:59:03.704Z,88.90
2022-12-02T01:01:33.680Z,88.50
2022-12-02T01:04:01.963Z,88.70
2022-12-02T01:06:31.638Z,88.80
2022-12-02T01:08:59.957Z,89.00
2022-12-02T01:11:28.353Z,89.10
2022-12-02T01:13:56.807Z,89.20
2022-12-02T01:16:25.080Z,89.40
2022-12-02T01:18:53.445Z,89.50
2022-12-02T01:21:23.402Z,89.40
2022-12-02T01:23:53.049Z,89.60
2022-12-02T01:26:21.508Z,89.90
2022-12-02T01:28:49.780Z,90.00
2022-12-02T01:31:18.222Z,90.00
2022-12-02T01:33:46.545Z,90.00
2022-12-02T01:36:14.824Z,90.10
2022-12-02T01:38:43.124Z,89.80
2022-12-02T01:41:12.904Z,89.80
2022-12-02T01:43:41.176Z,90.00
2022-12-02T01:46:09.643Z,90.00
2022-12-02T01:48:39.010Z,90.00
2022-12-02T01:51:08.357Z,90.00
2022-12-02T01:53:37.586Z,89.60
2022-12-02T01:56:06.224Z,89.40
2022-12-02T01:58:37.032Z,89.20
2022-12-02T02:01:05.711Z,89.10
2022-12-02T02:03:33.960Z,89.00
2022-12-02T02:06:02.397Z,89.10
2022-12-02T02:08:30.721Z,89.10
2022-12-02T02:10:59.194Z,89.00
2022-12-02T02:13:27.532Z,89.00
2022-12-02T02:15:57.338Z,88.70
2022-12-02T02:18:25.713Z,88.60
2022-12-02T02:20:56.772Z,87.90
2022-12-02T02:23:27.967Z,87.70
2022-12-02T02:25:59.224Z,88.00
2022-12-02T02:28:28.065Z,87.80
2022-12-02T02:30:58.373Z,87.80
2022-12-02T02:33:29.685Z,88.00
2022-12-02T02:35:58.314Z,88.00
2022-12-02T02:38:30.017Z,88.20
2022-12-02T02:41:01.452Z,87.90
2022-12-02T02:43:31.371Z,88.00
2022-12-02T02:46:01.100Z,87.80
2022-12-02T02:48:30.439Z,87.40
2022-12-02T02:50:59.058Z,87.40
2022-12-02T02:53:29.004Z,87.40
2022-12-02T02:55:57.470Z,87.20
2022-12-02T02:58:28.423Z,87.20
2022-12-02T03:01:00.821Z,86.50
2022-12-02T03:03:33.164Z,86.90
2022-12-02T03:06:02.843Z,87.20
2022-12-02T03:08:33.394Z,87.30
2022-12-02T03:11:03.209Z,87.50
2022-12-02T03:13:34.650Z,87.30
2022-12-02T03:16:04.335Z,87.50
2022-12-02T03:18:33.199Z,87.30
2022-12-02T03:21:01.796Z,87.50
2022-12-02T03:23:33.750Z,87.70
2022-12-02T03:26:03.097Z,87.80
2022-12-02T03:28:31.707Z,87.90
2022-12-02T03:31:00.648Z,87.90
2022-12-02T03:33:30.150Z,88.00
2022-12-02T03:35:58.725Z,87.90
2022-12-02T03:38:27.407Z,87.90
2022-12-02T03:41:00.006Z,87.80
2022-12-02T03:43:28.361Z,87.70
2022-12-02T03:45:58.173Z,87.60
2022-12-02T03:48:26.977Z,87.70
2022-12-02T03:50:55.865Z,87.70
2022-12-02T03:53:24.638Z,87.80
2022-12-02T03:55:53.018Z,87.40
2022-12-02T03:58:33.654Z,87.40
2022-12-02T04:01:02.146Z,87.50
2022-12-02T04:03:30.443Z,87.60
2022-12-02T04:05:58.940Z,87.70
2022-12-02T04:08:27.225Z,87.70
2022-12-02T04:10:55.557Z,87.80
2022-12-02T04:13:25.360Z,87.70
2022-12-02T04:15:53.703Z,87.40
2022-12-02T04:18:22.057Z,87.70
2022-12-02T04:20:50.322Z,87.80
2022-12-02T04:23:18.598Z,87.80
2022-12-02T04:25:46.867Z,87.80
2022-12-02T04:28:15.167Z,87.80
2022-12-02T04:30:44.873Z,87.80
2022-12-02T04:33:13.115Z,88.70
2022-12-02T04:35:41.429Z,88.00
2022-12-02T04:38:12.239Z,87.80
2022-12-02T04:40:40.975Z,87.80
2022-12-02T04:43:09.328Z,87.60
2022-12-02T04:45:37.705Z,87.60
2022-12-02T04:48:07.634Z,87.70
2022-12-02T04:50:35.995Z,88.50
2022-12-02T04:53:04.403Z,87.80
2022-12-02T04:55:32.717Z,87.70
2022-12-02T04:58:01.009Z,87.80
2022-12-02T05:00:29.395Z,87.80
2022-12-02T05:02:57.725Z,87.70
2022-12-02T05:05:27.422Z,87.60
2022-12-02T05:07:55.721Z,87.70
2022-12-02T05:10:24.336Z,87.30
2022-12-02T05:12:52.619Z,87.30
2022-12-02T05:15:21.212Z,87.40
2022-12-02T05:17:50.138Z,87.40
2022-12-02T05:20:18.662Z,87.30
2022-12-02T05:22:48.279Z,87.40
2022-12-02T05:25:16.638Z,87.50
2022-12-02T05:27:45.154Z,87.60
2022-12-02T05:30:14.653Z,87.50
2022-12-02T05:32:42.957Z,87.70
2022-12-02T05:35:11.421Z,87.80
2022-12-02T05:37:39.700Z,87.80
2022-12-02T05:40:11.403Z,88.00
2022-12-02T05:42:40.818Z,88.00
2022-12-02T05:45:16.311Z,88.10
2022-12-02T05:47:45.707Z,88.10
2022-12-02T05:50:14.994Z,88.20
2022-12-02T05:52:44.372Z,88.10
2022-12-02T05:55:19.479Z,88.10
2022-12-02T05:57:48.683Z,87.80
2022-12-02T06:00:19.759Z,87.90
2022-12-02T06:02:50.521Z,87.90
2022-12-02T06:05:22.105Z,87.50
2022-12-02T06:07:53.860Z,87.70
2022-12-02T06:10:27.774Z,87.80
2022-12-02T06:13:01.815Z,87.90
2022-12-02T06:15:35.582Z,88.10
2022-12-02T06:18:04.696Z,88.10
2022-12-02T06:20:35.767Z,88.60
2022-12-02T06:23:05.010Z,88.60
2022-12-02T06:25:34.723Z,88.50
2022-12-02T06:28:11.801Z,88.50
2022-12-02T06:30:41.584Z,88.70
2022-12-02T06:33:22.526Z,88.30
2022-12-02T06:35:51.836Z,88.40
2022-12-02T06:38:27.991Z,88.30
2022-12-02T06:40:58.430Z,88.10
2022-12-02T06:43:28.644Z,88.20
2022-12-02T06:45:57.055Z,88.30
2022-12-02T06:48:32.354Z,88.40
2022-12-02T06:51:12.270Z,88.60
2022-12-02T06:53:41.818Z,88.60
2022-12-02T06:56:22.183Z,88.40
2022-12-02T06:58:56.875Z,88.20
2022-12-02T07:01:32.429Z,88.30
2022-12-02T07:04:24.294Z,88.10
2022-12-02T07:06:55.672Z,88.10
2022-12-02T07:09:31.322Z,87.80
2022-12-02T07:12:01.486Z,88.00
2022-12-02T07:14:37.615Z,87.90
2022-12-02T07:17:15.287Z,87.90
2022-12-02T07:19:47.097Z,87.30
2022-12-02T07:22:17.579Z,87.20
2022-12-02T07:24:52.572Z,87.20
2022-12-02T07:27:26.434Z,87.40
2022-12-02T07:29:56.850Z,87.30
2022-12-02T07:32:25.529Z,87.20
2022-12-02T07:34:54.120Z,87.20
2022-12-02T07:37:22.838Z,87.20
2022-12-02T07:39:51.365Z,86.90
2022-12-02T07:42:19.714Z,87.10
2022-12-02T07:44:49.616Z,87.20
2022-12-02T07:47:18.188Z,87.30
2022-12-02T07:49:46.584Z,87.20
2022-12-02T07:52:14.895Z,87.30
2022-12-02T07:54:43.207Z,87.20
2022-12-02T07:57:11.465Z,87.20
2022-12-02T07:59:39.718Z,87.40
2022-12-02T08:02:09.391Z,87.40
2022-12-02T08:04:37.714Z,86.90
2022-12-02T08:07:06.176Z,87.10
2022-12-02T08:09:34.420Z,86.70
2022-12-02T08:12:02.705Z,86.70
2022-12-02T08:14:30.995Z,86.50
2022-12-02T08:16:59.346Z,86.00
2022-12-02T08:19:29.066Z,86.10
2022-12-02T08:21:57.326Z,86.30
2022-12-02T08:24:25.576Z,86.80
2022-12-02T08:26:53.839Z,86.80
2022-12-02T08:29:22.119Z,86.30
2022-12-02T08:31:50.407Z,86.20
2022-12-02T08:34:19.171Z,86.10
2022-12-02T08:36:48.892Z,86.20
2022-12-02T08:39:17.242Z,85.50
2022-12-02T08:41:45.460Z,84.80
2022-12-02T08:44:13.725Z,85.20
2022-12-02T08:46:42.109Z,85.20
2022-12-02T08:49:10.512Z,85.30
2022-12-02T08:51:38.803Z,85.40
2022-12-02T08:54:08.456Z,85.40
2022-12-02T08:56:36.730Z,85.00
2022-12-02T08:59:05.331Z,84.90
2022-12-02T09:01:33.660Z,84.70
2022-12-02T09:04:02.001Z,85.00
2022-12-02T09:06:35.692Z,84.50
2022-12-02T09:09:05.072Z,84.80
2022-12-02T09:11:35.013Z,84.60
2022-12-02T09:14:03.310Z,84.70
2022-12-02T09:16:31.675Z,84.70
2022-12-02T09:18:59.969Z,84.60
2022-12-02T09:21:28.350Z,84.10
2022-12-02T09:23:56.709Z,83.90
2022-12-02T09:26:25.000Z,83.60
2022-12-02T09:28:54.664Z,83.80
2022-12-02T09:31:22.973Z,83.80
2022-12-02T09:33:51.291Z,83.60
2022-12-02T09:36:19.523Z,83.50
2022-12-02T09:38:47.859Z,83.00
2022-12-02T09:41:16.187Z,83.00
2022-12-02T09:43:44.871Z,83.00
2022-12-02T09:46:16.432Z,83.20
2022-12-02T09:48:48.181Z,83.30
2022-12-02T09:51:16.514Z,83.00
2022-12-02T09:53:46.480Z,82.70
2022-12-02T09:56:18.513Z,83.00
2022-12-02T09:58:48.893Z,82.90
2022-12-02T10:01:19.030Z,82.50
2022-12-02T10:03:49.464Z,82.70
2022-12-02T10:06:21.390Z,82.50
2022-12-02T10:08:49.819Z,82.70
2022-12-02T10:11:23.864Z,82.80
2022-12-02T10:13:52.660Z,82.80
2022-12-02T10:16:22.490Z,82.40
2022-12-02T10:18:51.348Z,82.20
2022-12-02T10:21:19.669Z,82.10
2022-12-02T10:23:57.295Z,82.00
2022-12-02T10:26:25.757Z,82.10
2022-12-02T10:29:06.275Z,82.20
2022-12-02T10:31:36.664Z,82.20
2022-12-02T10:34:06.838Z,82.20
2022-12-02T10:36:36.914Z,81.90
2022-12-02T10:39:30.129Z,81.70
2022-12-02T10:42:21.531Z,81.30
2022-12-02T10:45:21.058Z,81.40
2022-12-02T10:47:52.241Z,81.60
2022-12-02T10:50:23.265Z,81.70
2022-12-02T10:52:53.587Z,80.90
2022-12-02T10:55:23.408Z,80.60
2022-12-02T10:57:52.507Z,79.90
2022-12-02T11:00:23.373Z,78.90
2022-12-02T11:02:56.378Z,79.40
2022-12-02T11:05:27.289Z,79.10
2022-12-02T11:07:58.562Z,79.50
2022-12-02T11:10:29.320Z,79.80
2022-12-02T11:13:06.974Z,79.60
2022-12-02T11:15:37.969Z,79.50
2022-12-02T11:18:09.195Z,79.60
2022-12-02T11:20:43.538Z,78.90
2022-12-02T11:23:24.209Z,79.30
2022-12-02T11:26:07.259Z,79.60
2022-12-02T11:28:46.204Z,79.30
2022-12-02T11:31:23.929Z,79.00
2022-12-02T11:34:27.438Z,78.20
2022-12-02T11:37:33.587Z,78.40
2022-12-02T11:40:05.344Z,78.60
2022-12-02T11:42:34.572Z,78.90
2022-12-02T11:45:14.756Z,78.80
2022-12-02T11:47:44.788Z,78.70
2022-12-02T11:50:28.156Z,78.90
2022-12-02T11:53:01.110Z,78.70
2022-12-02T11:55:35.414Z,78.30
2022-12-02T11:58:05.243Z,78.30
2022-12-02T12:00:38.418Z,78.20
2022-12-02T12:03:15.773Z,78.20
2022-12-02T12:06:06.661Z,78.20
2022-12-02T12:08:35.764Z,78.20
2022-12-02T12:11:23.739Z,78.30
2022-12-02T12:14:04.777Z,78.20
2022-12-02T12:16:34.551Z,77.90
2022-12-02T12:19:05.008Z,78.10
2022-12-02T12:21:45.504Z,77.90
2022-12-02T12:24:35.425Z,77.60
2022-12-02T12:27:32.981Z,78.00
2022-12-02T12:30:01.577Z,78.00
2022-12-02T12:32:30.243Z,77.90
2022-12-02T12:34:58.658Z,78.20
2022-12-02T12:37:28.561Z,78.20
2022-12-02T12:39:56.833Z,78.20
2022-12-02T12:42:25.109Z,78.20
2022-12-02T12:45:05.928Z,78.10
2022-12-02T12:47:34.206Z,77.70
2022-12-02T12:50:02.562Z,78.00
2022-12-02T12:52:32.287Z,78.20
2022-12-02T12:55:02.631Z,78.40
2022-12-02T12:57:30.973Z,78.60
2022-12-02T12:59:59.232Z,78.10
2022-12-02T13:02:27.674Z,78.50
2022-12-02T13:04:57.315Z,78.50
2022-12-02T13:07:25.949Z,78.70
2022-12-02T13:09:55.663Z,78.80
2022-12-02T13:12:23.885Z,78.90
2022-12-02T13:14:52.266Z,79.00
2022-12-02T13:17:20.807Z,78.70
2022-12-02T13:19:50.378Z,78.90
2022-12-02T13:22:18.792Z,78.90
2022-12-02T13:24:47.086Z,79.10
2022-12-02T13:27:16.714Z,79.00
2022-12-02T13:29:44.953Z,79.10
2022-12-02T13:32:13.210Z,79.10
2022-12-02T13:34:41.459Z,79.20
2022-12-02T13:37:09.721Z,79.10
2022-12-02T13:39:40.384Z,78.80
2022-12-02T13:42:09.446Z,78.70
2022-12-02T13:44:39.092Z,78.90
2022-12-02T13:47:07.598Z,78.90
2022-12-02T13:49:35.891Z,78.60
2022-12-02T13:52:07.019Z,78.80
2022-12-02T13:54:35.473Z,78.80
2022-12-02T13:57:03.703Z,79.00
2022-12-02T13:59:37.779Z,79.20
2022-12-02T14:02:08.036Z,79.40
2022-12-02T14:04:36.294Z,79.50
2022-12-02T14:07:04.809Z,79.60
2022-12-02T14:09:33.449Z,79.70
2022-12-02T14:12:01.680Z,80.00
2022-12-02T14:14:29.958Z,80.10
2022-12-02T14:16:58.192Z,80.20
2022-12-02T14:19:27.883Z,80.20
2022-12-02T14:21:56.136Z,80.20
2022-12-02T14:24:24.357Z,80.30
2022-12-02T14:26:52.619Z,80.40
2022-12-02T14:29:20.870Z,80.60
2022-12-02T14:31:49.135Z,80.70
2022-12-02T14:34:17.445Z,80.70
2022-12-02T14:36:47.119Z,80.80
2022-12-02T14:39:15.323Z,80.50
2022-12-02T14:41:43.699Z,80.50
2022-12-02T14:44:11.930Z,80.60
2022-12-02T14:46:40.311Z,80.60
2022-12-02T14:49:39.022Z,80.60
2022-12-02T14:51:58.616Z,80.80
2022-12-02T14:54:26.939Z,81.60
2022-12-02T14:56:55.217Z,80.90
2022-12-02T14:59:23.469Z,80.90
2022-12-02T15:01:51.871Z,80.90
2022-12-02T15:04:20.265Z,81.00
2022-12-02T15:07:03.154Z,81.00
2022-12-02T15:09:32.828Z,81.10
2022-12-02T15:12:01.171Z,81.10
2022-12-02T15:14:29.499Z,81.20
2022-12-02T15:16:57.952Z,81.20
2022-12-02T15:19:26.241Z,81.20
2022-12-02T15:21:54.727Z,81.30
2022-12-02T15:24:23.025Z,81.20
2022-12-02T15:26:55.703Z,81.20
2022-12-02T15:29:24.374Z,81.30
2022-12-02T15:31:52.833Z,81.40
2022-12-02T15:34:21.141Z,81.50
2022-12-02T15:36:49.484Z,81.60
2022-12-02T15:39:17.787Z,81.70
2022-12-02T15:41:46.137Z,81.80
2022-12-02T15:44:15.859Z,81.80
2022-12-02T15:46:44.189Z,81.80
2022-12-02T15:49:12.686Z,81.90
2022-12-02T15:51:41.068Z,81.90
2022-12-02T15:54:09.296Z,81.80
2022-12-02T15:56:37.561Z,81.90
2022-12-02T15:59:06.143Z,82.00
2022-12-02T16:01:36.022Z,82.10
2022-12-02T16:04:04.417Z,82.10
2022-12-02T16:06:32.679Z,82.20
2022-12-02T16:09:00.965Z,82.30
2022-12-02T16:11:29.291Z,82.40
2022-12-02T16:13:57.579Z,82.70
2022-12-02T16:16:26.111Z,82.80
2022-12-02T16:18:55.931Z,82.80
2022-12-02T16:21:24.182Z,82.80
2022-12-02T16:23:52.469Z,82.80
2022-12-02T16:26:20.884Z,83.00
2022-12-02T16:28:49.195Z,83.00
2022-12-02T16:31:17.661Z,82.90
2022-12-02T16:33:46.029Z,82.80
2022-12-02T16:36:15.725Z,83.00
2022-12-02T16:38:43.990Z,83.20
2022-12-02T16:41:12.287Z,83.30
2022-12-02T16:43:40.602Z,83.30
2022-12-02T16:46:09.004Z,83.20
2022-12-02T16:48:37.407Z,83.20
2022-12-02T16:51:05.855Z,83.20
2022-12-02T16:53:35.613Z,83.30
2022-12-02T16:56:04.027Z,83.30
2022-12-02T16:58:32.273Z,83.30
2022-12-02T17:01:00.654Z,83.30
2022-12-02T17:03:29.074Z,83.40
2022-12-02T17:05:57.383Z,83.40
2022-12-02T17:08:25.657Z,83.50
2022-12-02T17:10:55.314Z,83.50
2022-12-02T17:13:23.707Z,83.50
2022-12-02T17:15:52.087Z,83.40
2022-12-02T17:18:20.374Z,83.40
2022-12-02T17:20:53.814Z,83.40
2022-12-02T17:23:23.722Z,83.40
2022-12-02T17:25:52.126Z,83.40
2022-12-02T17:28:22.531Z,83.40
2022-12-02T17:30:50.859Z,83.40
2022-12-02T17:33:19.299Z,83.30
2022-12-02T17:35:47.718Z,83.20
2022-12-02T17:38:16.120Z,83.30
2022-12-02T17:40:44.365Z,83.40
2022-12-02T17:43:12.827Z,83.30
2022-12-02T17:45:42.615Z,83.40
2022-12-02T17:48:11.189Z,83.10
2022-12-02T17:50:39.476Z,83.10
2022-12-02T17:53:07.820Z,83.20
2022-12-02T17:55:36.139Z,83.40
2022-12-02T17:58:04.474Z,83.50
2022-12-02T18:00:33.080Z,83.60
2022-12-02T18:03:02.962Z,83.60
2022-12-02T18:05:31.380Z,83.60
2022-12-02T18:08:01.221Z,83.60
2022-12-02T18:10:29.655Z,83.60
2022-12-02T18:12:58.037Z,83.50
2022-12-02T18:15:26.405Z,83.60
2022-12-02T18:17:54.731Z,83.70
2022-12-02T18:20:24.419Z,83.80
2022-12-02T18:22:52.673Z,83.90
2022-12-02T18:25:21.094Z,84.00
2022-12-02T18:27:49.320Z,84.30
2022-12-02T18:30:18.003Z,84.60
2022-12-02T18:32:46.864Z,84.60
2022-12-02T18:35:15.734Z,84.60
2022-12-02T18:37:45.708Z,84.60
2022-12-02T18:40:17.881Z,84.80
2022-12-02T18:42:48.324Z,84.90
2022-12-02T18:45:16.905Z,85.00
2022-12-02T18:47:45.311Z,85.00
2022-12-02T18:50:14.077Z,85.10
2022-12-02T18:52:42.907Z,85.30
2022-12-02T18:55:15.058Z,85.30
2022-12-02T18:57:43.499Z,85.30
2022-12-02T19:00:14.837Z,85.50
2022-12-02T19:02:43.196Z,85.50
2022-12-02T19:05:12.023Z,85.60
2022-12-02T19:07:40.444Z,85.90
2022-12-02T19:10:09.636Z,85.90
2022-12-02T19:12:39.261Z,86.10
2022-12-02T19:15:08.628Z,86.20
2022-12-02T19:17:37.141Z,86.30
2022-12-02T19:20:06.855Z,86.50
2022-12-02T19:22:35.110Z,86.50
2022-12-02T19:25:04.798Z,86.50
2022-12-02T19:30:23.513Z,86.60
2022-12-02T19:32:51.840Z,86.50
2022-12-02T19:35:20.076Z,86.30
2022-12-02T19:37:48.465Z,86.30
2022-12-02T19:40:16.925Z,86.30
2022-12-02T19:42:45.220Z,86.70
2022-12-02T19:45:15.473Z,86.50
2022-12-02T19:47:45.163Z,86.40
2022-12-02T19:50:14.758Z,86.30
2022-12-02T19:52:43.646Z,86.50
2022-12-02T19:55:13.709Z,86.60
2022-12-02T19:57:42.504Z,86.70
2022-12-02T20:00:14.574Z,86.60
2022-12-02T20:02:44.436Z,86.60
2022-12-02T20:05:15.386Z,86.70
2022-12-02T20:07:43.860Z,86.90
2022-12-02T20:10:13.298Z,87.10
2022-12-02T20:12:41.773Z,87.20
2022-12-02T20:15:11.192Z,87.20
2022-12-02T20:17:39.665Z,87.20
2022-12-02T20:20:11.459Z,87.20
2022-12-02T20:22:39.963Z,87.30
2022-12-02T20:25:09.938Z,87.30
2022-12-02T20:27:38.364Z,87.30
2022-12-02T20:30:08.680Z,87.30
2022-12-02T20:32:37.904Z,87.30
2022-12-02T20:35:08.278Z,88.20
2022-12-02T20:37:36.533Z,87.40
2022-12-02T20:40:05.465Z,87.40
2022-12-02T20:42:33.719Z,87.20
2022-12-02T20:45:01.983Z,87.10
2022-12-02T20:47:30.388Z,87.10
2022-12-02T20:49:58.633Z,87.10
2022-12-02T20:52:28.373Z,86.90
2022-12-02T20:54:56.716Z,86.80
2022-12-02T20:57:24.955Z,86.60
2022-12-02T20:59:54.021Z,86.60
2022-12-02T21:02:22.383Z,86.60
2022-12-02T21:04:51.090Z,86.70
2022-12-02T21:07:19.665Z,86.70
2022-12-02T21:09:49.437Z,86.70
2022-12-02T21:12:17.779Z,86.70
2022-12-02T21:14:46.060Z,86.80
2022-12-02T21:17:14.586Z,86.80
2022-12-02T21:19:42.974Z,86.80
2022-12-02T21:22:11.413Z,86.70
2022-12-02T21:24:39.661Z,86.70
2022-12-02T21:27:09.321Z,86.80
2022-12-02T21:29:37.601Z,86.80
2022-12-02T21:32:06.414Z,86.80
2022-12-02T21:34:34.729Z,86.80
2022-12-02T21:37:03.007Z,86.90
2022-12-02T21:39:31.281Z,86.90
2022-12-02T21:41:59.578Z,87.00
2022-12-02T21:44:29.287Z,87.10
2022-12-02T21:46:57.624Z,87.10
2022-12-02T21:49:25.956Z,87.20
2022-12-02T21:51:54.277Z,87.30
2022-12-02T21:54:22.566Z,87.40
2022-12-02T21:56:50.860Z,87.50
2022-12-02T21:59:19.190Z,87.60
2022-12-02T22:01:48.898Z,87.60
2022-12-02T22:04:19.193Z,87.70
2022-12-02T22:06:47.592Z,87.80
2022-12-02T22:09:15.910Z,87.90
2022-12-02T22:11:46.582Z,88.00
2022-12-02T22:14:14.890Z,88.70
2022-12-02T22:16:43.238Z,88.50
2022-12-02T22:19:15.224Z,88.40
2022-12-02T22:21:43.685Z,88.30
2022-12-02T22:24:11.976Z,88.30
2022-12-02T22:26:40.268Z,88.30
2022-12-02T22:29:08.640Z,88.30
2022-12-02T22:31:37.020Z,88.30
2022-12-02T22:34:05.466Z,88.30
2022-12-02T22:36:35.232Z,88.40
2022-12-02T22:39:03.550Z,88.50
2022-12-02T22:41:31.806Z,88.60
2022-12-02T22:44:00.143Z,88.70
2022-12-02T22:46:28.465Z,88.90
2022-12-02T22:48:56.806Z,88.80
2022-12-02T22:51:25.099Z,88.90
2022-12-02T22:53:54.742Z,88.90
2022-12-02T22:56:23.004Z,89.00
2022-12-02T22:58:51.365Z,89.00
2022-12-02T23:01:19.834Z,89.10
2022-12-02T23:03:48.144Z,89.10
2022-12-02T23:06:16.410Z,89.20
2022-12-02T23:08:44.722Z,89.20
2022-12-02T23:11:14.367Z,89.20
2022-12-02T23:13:42.638Z,89.20
2022-12-02T23:16:11.167Z,89.20
2022-12-02T23:18:39.412Z,89.20
2022-12-02T23:21:07.686Z,89.20
2022-12-02T23:23:35.955Z,89.30
2022-12-02T23:26:04.226Z,89.20
2022-12-02T23:28:33.901Z,89.20
2022-12-02T23:31:02.182Z,89.20
2022-12-02T23:33:30.431Z,89.10
2022-12-02T23:35:58.675Z,89.20
2022-12-02T23:38:26.959Z,89.10
2022-12-02T23:40:55.231Z,89.10
2022-12-02T23:43:23.496Z,89.10
2022-12-02T23:45:53.208Z,89.10
2022-12-02T23:48:21.441Z,89.00
2022-12-02T23:50:49.676Z,88.90
2022-12-02T23:53:17.954Z,88.80
2022-12-02T23:55:46.216Z,88.80
2022-12-02T23:58:14.496Z,88.80
